Tapurah, Brazil
Current Conditions -  °F | °C
As of 2:00 PM on Friday 24 Oct 2014 (Local Time) from SBCY Reporting Station
Scattered Clouds Scattered Clouds  
Wind Chill: 95°   Ceiling: Unl
Heat Index: 98°   Visibility: 6mi
Dew Point: 66°   Wind: 17mph
Humidity: 39%   Direction: 350°N
Pressure: 29.8"   Gusts: NA
Location:  12.79°S, 56.54°W
Report Text: SBCY 241700Z 35015KT 9999 SCT020 SCT100 35/19 Q1009
Loading
Personal Weather Stations






























Interactive Weather Map
Tropical Storm Tracking
New forecast layout! Learn more

10-Day Weather Forecast

Advertisements
Track Severe Weather on mobile